Boone Observed Data For Previous 48 Hours

Caption
Day and Hour Reservoir Elevation (behind dam)* Tailwater Elevation (below dam)* Average Hourly Discharge*
6/16/2018 2 AM EDT 1,353.76 1,260.68 0
6/16/2018 3 AM EDT 1,353.83 1,260.38 0
6/16/2018 4 AM EDT 1,353.89 1,260.40 0
6/16/2018 5 AM EDT 1,353.94 1,260.46 0
6/16/2018 6 AM EDT 1,353.99 1,260.32 0
6/16/2018 7 AM EDT 1,354.04 1,260.32 0
6/16/2018 8 AM EDT 1,354.09 1,260.29 0
6/16/2018 9 AM EDT 1,354.14 1,260.26 0
6/16/2018 10 AM EDT 1,354.09 1,262.97 2,353
6/16/2018 11 AM EDT 1,354.05 1,263.10 3,559
6/16/2018 12 PM EDT 1,353.98 1,262.84 3,501
6/16/2018 1 PM EDT 1,353.91 1,262.84 3,117
6/16/2018 2 PM EDT 1,353.87 1,262.86 3,017
6/16/2018 3 PM EDT 1,353.81 1,262.97 3,000
6/16/2018 4 PM EDT 1,353.74 1,262.97 3,175
6/16/2018 5 PM EDT 1,353.69 1,263.04 3,341
6/16/2018 6 PM EDT 1,353.61 1,263.03 3,520
6/16/2018 7 PM EDT 1,353.55 1,263.11 3,424
6/16/2018 8 PM EDT 1,353.56 1,263.04 3,402
6/16/2018 9 PM EDT 1,353.59 1,262.85 3,021
6/16/2018 10 PM EDT 1,353.63 1,262.96 3,033
6/16/2018 11 PM EDT 1,353.64 1,262.85 2,960
6/17/2018 12 AM EDT 1,353.64 1,262.83 3,265
6/17/2018 1 AM EDT 1,353.61 1,262.85 3,192
6/17/2018 2 AM EDT 1,353.65 1,260.65 37
6/17/2018 3 AM EDT 1,353.75 1,260.53 0
6/17/2018 4 AM EDT 1,353.78 1,260.51 0
6/17/2018 5 AM EDT 1,353.83 1,260.33 0
6/17/2018 6 AM EDT 1,353.89 1,260.34 0
6/17/2018 7 AM EDT 1,353.94 1,260.36 0
6/17/2018 8 AM EDT 1,353.99 1,260.28 0
6/17/2018 9 AM EDT 1,353.98 1,262.37 186
6/17/2018 10 AM EDT 1,353.97 1,262.97 3,435
6/17/2018 11 AM EDT 1,353.91 1,262.84 3,397
6/17/2018 12 PM EDT 1,353.83 1,263.05 3,358
6/17/2018 1 PM EDT 1,353.78 1,262.86 3,346
6/17/2018 2 PM EDT 1,353.71 1,262.91 3,468
6/17/2018 3 PM EDT 1,353.66 1,263.00 3,163
6/17/2018 4 PM EDT 1,353.57 1,262.92 3,238
6/17/2018 5 PM EDT 1,353.50 1,262.98 3,053
6/17/2018 6 PM EDT 1,353.45 1,262.89 3,038
6/17/2018 7 PM EDT 1,353.41 1,262.99 3,093
6/17/2018 8 PM EDT 1,353.35 1,262.84 3,054
6/17/2018 9 PM EDT 1,353.28 1,263.17 3,357
6/17/2018 10 PM EDT 1,353.31 1,260.58 54
6/17/2018 11 PM EDT 1,353.40 1,260.46 0
6/18/2018 12 AM EDT 1,353.43 1,260.46 0
6/18/2018 1 AM EDT 1,353.48 1,260.32 0
6/18/2018 2 AM EDT 1,353.53 1,260.34 0
6/18/2018 3 AM EDT 1,353.58 1,260.34 0
6/18/2018 4 AM EDT 1,353.62 1,260.26 0
6/18/2018 5 AM EDT 1,353.67 1,260.26 0
6/18/2018 6 AM EDT 1,353.72 1,260.25 0
6/18/2018 7 AM EDT 1,353.77 1,260.24 0
6/18/2018 8 AM EDT 1,353.82 1,260.24 0
6/18/2018 9 AM EDT 1,353.86 1,260.23 0
6/18/2018 10 AM EDT 1,353.91 1,260.23 0
6/18/2018 11 AM EDT 1,353.90 1,262.36 185
6/18/2018 12 PM EDT 1,353.88 1,263.15 3,164
6/18/2018 1 PM EDT 1,353.81 1,263.15 3,531
6/18/2018 2 PM EDT 1,353.75 1,262.92 3,311
6/18/2018 3 PM EDT 1,353.69 1,262.88 3,298
6/18/2018 4 PM EDT 1,353.61 1,262.81 3,070
6/18/2018 5 PM EDT 1,353.55 1,262.99 3,126
6/18/2018 6 PM EDT 1,353.49 1,263.06 3,060

Elevations are in feet above sea level. Discharges are in cubic feet per second and are reported at the end of the hour.